Time;durP1;ratioP1;P1;durP2;ratioP2;P2;SDS_P1;SDS_P2;PMS_P1;PMS_P2;Temp;Humidity;BMP_temperature;BMP_pressure;BME280_temperature;BME280_humidity;BME280_pressure;Samples;Min_cycle;Max_cycle;Signal;HPM_P1;HPM_P2
2022/05/19 00:01:01;;;;;;;3.45;1.77;;;;;;;7.50;62.89;100206.78;1710111;83;21011;-81
2022/05/19 00:03:11;;;;;;;2.45;1.37;;;;;;;7.50;66.18;100208.97;1734645;82;21059;-82
2022/05/19 00:05:38;;;;;;;13.25;1.77;;;;;;;7.53;63.39;100215.88;1721314;82;21083;-81
2022/05/19 00:08:06;;;;;;;3.72;1.62;;;;;;;7.47;65.22;100214.55;1719908;83;21100;-81
2022/05/19 00:10:32;;;;;;;2.98;1.35;;;;;;;7.49;64.30;100219.30;1720579;83;21011;-82
2022/05/19 00:13:01;;;;;;;5.67;1.77;;;;;;;7.49;64.72;100224.48;1709241;82;20999;-81
2022/05/19 00:15:28;;;;;;;5.37;1.75;;;;;;;7.44;65.00;100224.47;1734583;81;21030;-82
2022/05/19 00:17:55;;;;;;;3.42;1.70;;;;;;;7.41;63.69;100226.16;1735778;81;20982;-81
2022/05/19 00:20:21;;;;;;;5.90;1.60;;;;;;;7.34;65.48;100227.82;1724904;83;21063;-82
2022/05/19 00:22:48;;;;;;;2.60;1.40;;;;;;;7.30;66.07;100232.14;1737084;83;21023;-82
2022/05/19 00:25:15;;;;;;;4.33;1.80;;;;;;;7.27;64.83;100232.10;1710645;84;21027;-81
2022/05/19 00:27:42;;;;;;;5.83;1.70;;;;;;;7.21;65.40;100231.20;1692813;83;21003;-82
2022/05/19 00:30:10;;;;;;;7.97;1.87;;;;;;;7.15;62.94;100238.49;1738362;82;21020;-82
2022/05/19 00:32:36;;;;;;;3.35;1.82;;;;;;;7.07;69.28;100234.55;1720801;82;21483;-82
2022/05/19 00:35:03;;;;;;;7.53;1.70;;;;;;;7.01;66.26;100236.23;1732138;83;20995;-82
2022/05/19 00:37:30;;;;;;;5.78;1.57;;;;;;;6.96;67.51;100239.66;1710827;84;21042;-83
2022/05/19 00:39:57;;;;;;;2.55;1.40;;;;;;;6.92;66.44;100245.66;1739992;81;20979;-82
2022/05/19 00:45:11;;;;;;;4.65;1.40;;;;;;;6.83;67.77;100237.81;1714402;83;20959;-82
2022/05/19 00:47:58;;;;;;;6.25;1.70;;;;;;;6.80;65.64;100233.04;1711037;83;21106;-82
2022/05/19 00:50:45;;;;;;;4.37;1.57;;;;;;;6.76;66.43;100230.45;1700011;84;20989;-81
2022/05/19 00:53:36;;;;;;;3.58;1.55;;;;;;;6.76;67.67;100234.33;1724316;83;21091;-81
2022/05/19 00:56:10;;;;;;;4.20;1.40;;;;;;;6.77;68.47;100235.19;1696838;82;21093;-81
2022/05/19 00:58:42;;;;;;;5.50;1.67;;;;;;;6.73;69.46;100238.16;1699874;82;20988;-81
2022/05/19 01:01:10;;;;;;;3.77;1.40;;;;;;;6.74;67.93;100240.31;1737055;81;21130;-81
2022/05/19 01:03:42;;;;;;;3.72;1.42;;;;;;;6.73;67.38;100247.20;1746466;82;21035;-82
2022/05/19 01:06:16;;;;;;;4.87;1.65;;;;;;;6.71;70.43;100251.93;1719743;83;21034;-84
2022/05/19 01:09:02;;;;;;;5.72;2.33;;;;;;;6.66;69.05;100253.16;1705576;83;21105;-82
2022/05/19 01:11:30;;;;;;;3.42;1.60;;;;;;;6.68;67.17;100248.02;1702470;82;21041;-82
2022/05/19 01:13:58;;;;;;;5.22;1.60;;;;;;;6.62;67.74;100255.27;1712971;83;21010;-81
2022/05/19 01:16:25;;;;;;;3.55;1.82;;;;;;;6.59;67.56;100250.53;1723139;83;21019;-82
2022/05/19 01:18:52;;;;;;;10.60;2.00;;;;;;;6.54;67.26;100245.30;1706437;83;21041;-82
2022/05/19 01:21:21;;;;;;;5.28;2.17;;;;;;;6.49;68.14;100250.42;1716319;83;21048;-83
2022/05/19 01:24:21;;;;;;;2.70;1.60;;;;;;;6.45;70.15;100259.00;1694512;85;21178;-82
2022/05/19 01:26:53;;;;;;;2.87;1.70;;;;;;;6.38;69.75;100257.19;1694649;85;21047;-84
2022/05/19 01:29:23;;;;;;;5.55;2.12;;;;;;;6.34;71.94;100255.42;1705396;83;21050;-83
2022/05/19 01:31:53;;;;;;;3.80;1.95;;;;;;;6.32;73.53;100262.30;1730042;82;21103;-84
2022/05/19 01:34:25;;;;;;;5.78;2.02;;;;;;;6.34;69.11;100256.72;1715716;83;21108;-83
2022/05/19 01:36:52;;;;;;;4.75;1.70;;;;;;;6.33;69.85;100261.46;1723211;83;21177;-83
2022/05/19 01:39:26;;;;;;;4.35;1.77;;;;;;;6.31;71.95;100263.16;1723065;83;21119;-83
2022/05/19 01:42:37;;;;;;;5.12;2.02;;;;;;;6.28;70.74;100264.41;1721989;83;21049;-83
2022/05/19 01:45:34;;;;;;;6.35;1.60;;;;;;;6.27;71.41;100260.11;1709798;83;20975;-84
2022/05/19 01:48:31;;;;;;;3.00;1.60;;;;;;;6.26;70.63;100260.50;1702658;81;21038;-83
2022/05/19 01:51:15;;;;;;;3.30;1.52;;;;;;;6.27;71.95;100265.27;1704343;83;21083;-83
2022/05/19 01:54:08;;;;;;;6.05;1.80;;;;;;;6.28;71.56;100272.16;1715332;83;21123;-84
2022/05/19 01:56:58;;;;;;;3.85;1.70;;;;;;;6.26;70.61;100272.13;1707430;83;20976;-84
2022/05/19 01:59:33;;;;;;;3.65;1.70;;;;;;;6.21;70.95;100269.94;1691643;84;21003;-83
2022/05/19 02:02:29;;;;;;;4.60;1.70;;;;;;;6.17;72.34;100275.48;1678715;86;21087;-82
2022/05/19 02:05:28;;;;;;;4.03;1.90;;;;;;;6.12;69.84;100277.56;1691065;84;21054;-84
2022/05/19 02:07:59;;;;;;;4.10;1.50;;;;;;;6.03;69.58;100282.60;1679746;84;21086;-83
2022/05/19 02:10:30;;;;;;;3.37;1.60;;;;;;;5.94;69.73;100284.63;1678867;86;21083;-83
2022/05/19 02:13:00;;;;;;;4.47;1.70;;;;;;;5.89;69.45;100289.73;1678414;86;21036;-83
2022/05/19 02:15:31;;;;;;;7.65;2.52;;;;;;;5.85;70.62;100290.55;1693322;84;21094;-83
2022/05/19 02:17:58;;;;;;;3.77;1.60;;;;;;;5.82;72.06;100290.49;1705485;84;21048;-83
2022/05/19 02:20:28;;;;;;;3.62;1.80;;;;;;;5.78;72.35;100303.77;1717218;83;21079;-84
2022/05/19 02:22:55;;;;;;;6.15;2.00;;;;;;;5.75;71.83;100303.75;1736500;80;21063;-84
2022/05/19 02:25:42;;;;;;;5.67;1.92;;;;;;;5.74;70.36;100296.83;1736599;83;21070;-83
2022/05/19 02:28:28;;;;;;;7.85;1.90;;;;;;;5.72;71.92;100302.40;1736677;80;21539;-83
2022/05/19 02:30:56;;;;;;;3.30;1.90;;;;;;;5.73;71.55;100301.97;1736615;82;20979;-84
2022/05/19 02:33:23;;;;;;;4.15;1.82;;;;;;;5.75;72.37;100310.63;1736655;80;21163;-85
2022/05/19 02:35:51;;;;;;;4.37;1.40;;;;;;;5.72;72.95;100312.72;1722042;83;21007;-84
2022/05/19 02:38:20;;;;;;;3.77;1.85;;;;;;;5.74;73.31;100314.04;1707181;83;21000;-84
2022/05/19 02:40:48;;;;;;;3.08;1.55;;;;;;;5.76;71.72;100313.64;1707531;84;21055;-84
2022/05/19 02:43:16;;;;;;;4.90;1.65;;;;;;;5.78;71.95;100308.08;1707260;82;21019;-83
2022/05/19 02:45:43;;;;;;;5.87;1.80;;;;;;;5.81;71.40;100307.23;1707282;82;21083;-83
2022/05/19 02:48:13;;;;;;;4.05;1.80;;;;;;;5.80;72.86;100308.96;1685705;83;21055;-84
2022/05/19 02:50:42;;;;;;;5.33;1.92;;;;;;;5.80;72.71;100313.27;1707051;83;20980;-83
2022/05/19 02:53:10;;;;;;;5.37;2.17;;;;;;;5.79;72.22;100307.24;1680362;84;21059;-84
2022/05/19 02:55:39;;;;;;;8.45;1.90;;;;;;;5.78;72.58;100308.94;1706686;83;21099;-83
2022/05/19 02:58:11;;;;;;;6.53;1.72;;;;;;;5.77;72.11;100303.34;1707336;84;21064;-84
2022/05/19 03:00:41;;;;;;;6.72;1.98;;;;;;;5.75;73.01;100300.30;1707151;84;21007;-83
2022/05/19 03:03:08;;;;;;;6.17;1.82;;;;;;;5.72;73.09;100302.40;1707237;84;21075;-83
2022/05/19 03:05:36;;;;;;;8.03;1.75;;;;;;;5.67;74.99;100307.94;1680800;84;21145;-84
2022/05/19 03:08:03;;;;;;;6.05;1.47;;;;;;;5.65;72.12;100312.61;1681703;85;21030;-83
2022/05/19 03:10:30;;;;;;;5.95;1.87;;;;;;;5.63;71.81;100311.32;1678634;86;21073;-83
2022/05/19 03:12:57;;;;;;;8.53;1.87;;;;;;;5.58;73.43;100309.08;1681808;83;21022;-85
2022/05/19 03:15:24;;;;;;;8.75;1.70;;;;;;;5.56;73.64;100307.77;1678824;86;21059;-83
2022/05/19 03:17:51;;;;;;;5.80;2.08;;;;;;;5.53;75.76;100310.31;1679077;83;21332;-84
2022/05/19 03:20:18;;;;;;;4.22;2.02;;;;;;;5.55;76.93;100307.34;1679280;83;20991;-84
2022/05/19 03:22:45;;;;;;;3.92;1.80;;;;;;;5.61;72.51;100317.28;1705870;82;21019;-84
2022/05/19 03:25:12;;;;;;;8.53;2.20;;;;;;;5.62;74.10;100312.15;1707480;84;20999;-84
2022/05/19 03:27:39;;;;;;;4.12;2.58;;;;;;;5.67;74.42;100315.67;1687921;84;21071;-84
2022/05/19 03:30:12;;;;;;;5.62;3.58;;;;;;;5.71;73.59;100320.43;1679232;83;21023;-84
2022/05/19 03:32:39;;;;;;;6.78;3.00;;;;;;;5.73;73.13;100321.32;1696666;84;21060;-83
2022/05/19 03:35:07;;;;;;;5.20;2.70;;;;;;;5.73;73.70;100326.08;1705652;84;21043;-84
2022/05/19 03:37:33;;;;;;;6.65;2.60;;;;;;;5.74;74.66;100325.22;1707374;84;21039;-84
2022/05/19 03:40:00;;;;;;;7.97;2.17;;;;;;;5.77;74.01;100325.70;1702829;83;21046;-84
2022/05/19 03:42:27;;;;;;;3.58;1.77;;;;;;;5.83;73.79;100324.50;1678804;85;21004;-84
2022/05/19 03:44:53;;;;;;;5.50;2.15;;;;;;;5.88;75.51;100329.28;1699919;84;20957;-81
2022/05/19 03:47:20;;;;;;;2.83;1.45;;;;;;;5.92;74.26;100336.66;1695916;84;21127;-82
2022/05/19 03:49:46;;;;;;;5.65;1.87;;;;;;;5.92;74.30;100335.36;1711390;83;20983;-81
2022/05/19 03:52:13;;;;;;;9.60;1.82;;;;;;;5.96;74.46;100341.04;1706710;84;21082;-82
2022/05/19 03:54:40;;;;;;;3.17;1.32;;;;;;;6.02;74.04;100343.70;1706233;84;21111;-82
2022/05/19 03:57:06;;;;;;;5.05;1.50;;;;;;;6.06;74.66;100348.06;1743818;82;21042;-82
2022/05/19 03:59:34;;;;;;;7.08;1.90;;;;;;;6.12;74.15;100352.01;1749461;81;20943;-81
2022/05/19 04:02:03;;;;;;;3.98;1.70;;;;;;;6.13;71.85;100356.34;1748409;82;21098;-82
2022/05/19 04:04:30;;;;;;;3.05;1.70;;;;;;;6.16;72.06;100350.34;1745507;82;21024;-82
2022/05/19 04:06:57;;;;;;;4.37;1.67;;;;;;;6.17;72.73;100351.66;1746756;82;20967;-82
2022/05/19 04:09:24;;;;;;;2.80;1.70;;;;;;;6.24;73.45;100350.44;1748757;80;21121;-82
2022/05/19 04:11:50;;;;;;;5.25;2.33;;;;;;;6.30;72.60;100345.34;1734216;82;20983;-82
2022/05/19 04:14:19;;;;;;;8.53;3.47;;;;;;;6.37;72.57;100354.92;1717094;82;20979;-82
2022/05/19 04:16:49;;;;;;;7.70;3.50;;;;;;;6.49;72.65;100356.35;1715103;82;21040;-85
2022/05/19 04:19:14;;;;;;;4.42;2.20;;;;;;;6.60;72.53;100357.75;1717641;82;20987;-83
2022/05/19 04:21:41;;;;;;;4.87;2.30;;;;;;;6.72;73.14;100346.69;1692293;84;21095;-83
2022/05/19 04:24:08;;;;;;;10.53;2.75;;;;;;;6.81;72.23;100351.11;1689561;85;21058;-84
2022/05/19 04:26:34;;;;;;;7.22;2.00;;;;;;;6.89;71.56;100358.51;1717882;84;21024;-84
2022/05/19 04:29:01;;;;;;;6.92;1.90;;;;;;;6.98;71.78;100357.28;1732320;82;20983;-84
2022/05/19 04:31:28;;;;;;;5.22;1.82;;;;;;;7.04;71.43;100352.17;1690864;84;21026;-83
2022/05/19 04:33:54;;;;;;;4.08;2.12;;;;;;;7.10;71.42;100360.41;1718612;84;21030;-81
2022/05/19 04:36:21;;;;;;;11.73;2.20;;;;;;;7.13;72.20;100361.32;1759940;81;21026;-82
2022/05/19 04:38:47;;;;;;;5.85;1.92;;;;;;;7.20;70.29;100364.81;1767288;81;21026;-82
2022/05/19 04:41:14;;;;;;;5.33;2.00;;;;;;;7.24;70.00;100358.84;1748071;82;21082;-82
2022/05/19 04:43:40;;;;;;;7.22;2.17;;;;;;;7.28;70.88;100351.55;1748135;82;21034;-83
2022/05/19 04:46:07;;;;;;;6.80;2.40;;;;;;;7.35;69.85;100359.78;1732611;82;21033;-82
2022/05/19 04:48:35;;;;;;;4.75;2.17;;;;;;;7.43;69.50;100361.58;1724266;82;21090;-82
2022/05/19 04:51:02;;;;;;;12.90;4.33;;;;;;;7.50;69.67;100366.81;1747053;81;21055;-81
2022/05/19 04:53:29;;;;;;;7.58;2.60;;;;;;;7.51;70.43;100357.33;1746194;82;21078;-81
2022/05/19 04:55:56;;;;;;;5.33;2.20;;;;;;;7.55;69.38;100358.64;1741747;82;21051;-81
2022/05/19 04:58:23;;;;;;;6.03;2.40;;;;;;;7.58;69.40;100357.82;1728088;82;20959;-80
2022/05/19 05:00:51;;;;;;;6.62;2.08;;;;;;;7.65;69.48;100359.58;1730429;81;21118;-87
2022/05/19 05:03:19;;;;;;;6.50;3.02;;;;;;;7.72;69.66;100355.33;1733507;82;21479;-80
2022/05/19 05:05:46;;;;;;;15.88;5.65;;;;;;;7.79;68.80;100351.91;1735382;81;20992;-82
2022/05/19 05:08:12;;;;;;;6.47;2.30;;;;;;;7.94;69.34;100361.51;1733292;82;21030;-82
2022/05/19 05:10:41;;;;;;;5.10;2.58;;;;;;;8.01;68.60;100358.08;1730473;83;21077;-81
2022/05/19 05:13:11;;;;;;;3.70;1.75;;;;;;;8.05;68.37;100362.41;1732748;83;21071;-81
2022/05/19 05:15:41;;;;;;;3.70;1.70;;;;;;;8.13;68.23;100362.45;1733032;83;21111;-81
2022/05/19 05:18:09;;;;;;;5.47;1.95;;;;;;;8.23;68.00;100358.19;1713137;82;21003;-81
2022/05/19 05:20:41;;;;;;;7.35;1.75;;;;;;;8.27;68.39;100354.75;1742851;81;21063;-82
2022/05/19 05:23:08;;;;;;;5.22;1.45;;;;;;;8.39;68.25;100361.72;1730900;81;20978;-82
2022/05/19 05:25:35;;;;;;;5.83;1.65;;;;;;;8.50;68.37;100357.05;1725640;82;20988;-82
2022/05/19 05:28:03;;;;;;;4.60;1.60;;;;;;;8.62;67.97;100368.33;1765394;80;21052;-82
2022/05/19 05:30:30;;;;;;;4.12;1.82;;;;;;;8.69;67.21;100359.25;1755958;81;20971;-81
2022/05/19 05:33:04;;;;;;;3.62;1.90;;;;;;;8.82;67.18;100358.01;1743683;81;20952;-82
2022/05/19 05:35:31;;;;;;;6.33;1.95;;;;;;;8.93;66.51;100354.58;1754370;81;21011;-81
2022/05/19 05:37:58;;;;;;;6.78;2.33;;;;;;;9.01;65.26;100350.67;1743353;81;20998;-81
2022/05/19 05:40:26;;;;;;;4.80;1.95;;;;;;;9.09;65.19;100349.39;1739339;83;21041;-82
2022/05/19 05:42:53;;;;;;;9.98;1.82;;;;;;;9.15;64.88;100354.17;1748775;81;21015;-81
2022/05/19 05:45:20;;;;;;;5.40;2.20;;;;;;;9.25;64.61;100348.55;1741887;80;21055;-82
2022/05/19 05:47:47;;;;;;;7.15;3.47;;;;;;;9.28;64.37;100355.02;1756455;81;21006;-81
2022/05/19 05:50:14;;;;;;;4.37;2.17;;;;;;;9.36;64.81;100355.89;1754729;81;21011;-82
2022/05/19 05:52:41;;;;;;;10.15;2.42;;;;;;;9.50;63.94;100361.52;1688453;83;21015;-82
2022/05/19 05:55:08;;;;;;;5.60;2.20;;;;;;;9.53;63.55;100357.64;1715469;83;21031;-83
2022/05/19 05:57:35;;;;;;;5.22;2.20;;;;;;;9.62;63.48;100355.02;1713762;82;21013;-82
2022/05/19 06:00:06;;;;;;;5.80;1.70;;;;;;;9.69;63.73;100350.70;1742877;82;21132;-82
2022/05/19 06:02:35;;;;;;;4.95;2.00;;;;;;;9.78;63.67;100353.70;1743221;82;21010;-83
2022/05/19 06:05:02;;;;;;;4.60;1.90;;;;;;;9.87;63.22;100353.70;1746263;81;21055;-83
2022/05/19 06:07:29;;;;;;;7.03;2.00;;;;;;;9.95;63.01;100352.80;1750866;81;21034;-82
2022/05/19 06:09:56;;;;;;;3.95;1.67;;;;;;;10.01;62.35;100350.62;1744293;81;20964;-84
2022/05/19 06:12:25;;;;;;;3.90;1.82;;;;;;;10.10;62.36;100362.27;1741929;81;20987;-81
2022/05/19 06:14:56;;;;;;;6.60;2.10;;;;;;;10.21;62.25;100355.76;1736367;81;21121;-80
2022/05/19 06:17:24;;;;;;;5.08;2.02;;;;;;;10.31;61.85;100351.43;1755577;81;20979;-83
2022/05/19 06:19:51;;;;;;;6.30;2.00;;;;;;;10.41;61.62;100352.26;1745014;81;21470;-82
2022/05/19 06:22:22;;;;;;;4.60;1.77;;;;;;;10.55;61.29;100352.61;1745843;80;21033;-90
2022/05/19 06:25:18;;;;;;;6.03;1.90;;;;;;;10.62;61.01;100348.67;1671540;81;21164;-83
2022/05/19 06:27:46;;;;;;;3.22;1.67;;;;;;;10.75;60.84;100354.24;1686861;79;21101;-87
2022/05/19 06:30:14;;;;;;;4.42;1.82;;;;;;;10.88;60.45;100349.41;1701350;83;20993;-83
2022/05/19 06:32:43;;;;;;;5.53;1.95;;;;;;;11.02;60.64;100352.33;1720317;83;20994;-80
2022/05/19 06:35:13;;;;;;;5.50;2.00;;;;;;;11.18;60.36;100350.48;1724110;83;21511;-82
2022/05/19 06:37:39;;;;;;;4.58;2.10;;;;;;;11.34;60.11;100352.97;1720613;82;21065;-84
2022/05/19 06:40:09;;;;;;;3.58;1.92;;;;;;;11.48;60.13;100342.86;1740950;81;21077;-83
2022/05/19 06:42:37;;;;;;;5.25;2.08;;;;;;;11.63;59.73;100341.42;1727253;83;21089;-84
2022/05/19 06:45:06;;;;;;;5.00;1.87;;;;;;;11.77;59.45;100343.03;1729824;82;21076;-84
2022/05/19 06:47:33;;;;;;;7.12;1.92;;;;;;;11.89;58.76;100346.84;1732182;81;20995;-87
2022/05/19 06:50:00;;;;;;;6.53;2.05;;;;;;;11.98;58.85;100348.48;1708105;78;21073;-84
2022/05/19 06:52:30;;;;;;;4.87;1.80;;;;;;;12.07;58.82;100346.64;1695857;83;21096;-85
2022/05/19 06:55:00;;;;;;;5.47;1.62;;;;;;;12.21;58.23;100352.14;1677333;86;21025;-82
2022/05/19 06:57:31;;;;;;;5.20;1.80;;;;;;;12.32;58.45;100348.53;1654936;85;22438;-82
2022/05/19 06:59:58;;;;;;;6.10;1.50;;;;;;;12.42;57.67;100354.50;1661302;85;21051;-84
2022/05/19 07:02:25;;;;;;;3.27;1.60;;;;;;;12.50;56.28;100353.95;1645246;87;21106;-81
2022/05/19 07:04:52;;;;;;;5.17;1.80;;;;;;;12.60;55.84;100353.40;1691350;85;21147;-84
2022/05/19 07:07:19;;;;;;;4.62;1.50;;;;;;;12.66;55.83;100357.67;1672858;84;21087;-82
2022/05/19 07:09:46;;;;;;;3.27;1.52;;;;;;;12.75;55.32;100351.00;1625521;88;21038;-82
2022/05/19 07:12:13;;;;;;;6.67;1.70;;;;;;;12.88;55.50;100348.66;1665779;86;21077;-86
2022/05/19 07:14:41;;;;;;;3.27;1.52;;;;;;;13.03;55.33;100345.39;1651491;86;21703;-82
2022/05/19 07:17:09;;;;;;;5.08;1.50;;;;;;;13.15;55.51;100338.70;1674958;86;21070;-85
2022/05/19 07:22:23;;;;;;;3.72;1.60;;;;;;;13.35;54.21;100339.71;1673962;84;21066;-84
2022/05/19 07:24:51;;;;;;;6.78;1.50;;;;;;;13.50;52.54;100349.02;1680450;85;21019;-82
2022/05/19 07:27:18;;;;;;;3.55;1.50;;;;;;;13.60;53.42;100343.20;1643394;87;21074;-84
2022/05/19 07:29:45;;;;;;;6.25;1.42;;;;;;;13.71;51.57;100347.80;1671661;86;20966;-85
2022/05/19 07:32:12;;;;;;;5.47;1.60;;;;;;;13.78;52.28;100346.78;1676270;85;21062;-85
2022/05/19 07:34:41;;;;;;;6.85;1.85;;;;;;;13.85;52.58;100339.71;1675988;85;21054;-85
2022/05/19 07:37:08;;;;;;;4.85;2.33;;;;;;;13.96;51.67;100336.42;1661345;85;21019;-81
2022/05/19 07:39:35;;;;;;;5.47;1.52;;;;;;;14.05;51.44;100336.26;1684688;84;21037;-82
2022/05/19 07:42:02;;;;;;;10.95;1.50;;;;;;;14.11;50.04;100338.75;1676410;84;21055;-85
2022/05/19 07:44:30;;;;;;;6.67;1.80;;;;;;;14.23;51.06;100332.87;1675258;84;21150;-82
2022/05/19 07:46:57;;;;;;;4.90;1.40;;;;;;;14.30;48.63;100329.22;1668782;84;20979;-83
2022/05/19 07:49:25;;;;;;;3.87;1.55;;;;;;;14.38;49.98;100319.45;1647814;86;21555;-85
2022/05/19 07:51:52;;;;;;;3.42;1.60;;;;;;;14.51;50.61;100320.91;1674078;84;21089;-83
2022/05/19 07:54:24;;;;;;;6.67;1.77;;;;;;;14.60;49.56;100325.56;1673985;84;21157;-82
2022/05/19 07:56:51;;;;;;;6.53;1.85;;;;;;;14.67;50.27;100321.47;1675209;86;21063;-84
2022/05/19 07:59:18;;;;;;;5.60;2.37;;;;;;;14.79;50.56;100326.03;1629953;88;20980;-84
2022/05/19 08:01:45;;;;;;;5.50;1.60;;;;;;;14.94;50.30;100317.83;1674835;86;21039;-81
2022/05/19 08:04:14;;;;;;;3.27;1.60;;;;;;;15.11;49.24;100318.27;1669487;84;21066;-84
2022/05/19 08:06:41;;;;;;;2.05;1.00;;;;;;;15.19;48.36;100310.22;1659591;86;21110;-83
2022/05/19 08:11:55;;;;;;;4.83;1.15;;;;;;;15.39;47.47;100303.62;1668927;84;20995;-82
2022/05/19 08:17:10;;;;;;;2.77;1.22;;;;;;;15.51;44.08;100304.16;1643080;86;21088;-85
2022/05/19 08:19:38;;;;;;;2.42;1.20;;;;;;;15.61;46.09;100296.91;1630693;88;21055;-83
2022/05/19 08:22:06;;;;;;;3.15;1.30;;;;;;;15.71;43.88;100304.08;1630801;87;21098;-83
2022/05/19 08:24:36;;;;;;;7.95;2.05;;;;;;;15.83;46.54;100305.09;1674542;86;21103;-82
2022/05/19 08:27:03;;;;;;;3.70;1.17;;;;;;;15.98;45.12;100297.27;1674881;85;21090;-84
2022/05/19 08:29:31;;;;;;;3.47;1.30;;;;;;;16.17;45.53;100297.58;1675174;85;21044;-83
2022/05/19 08:31:57;;;;;;;2.40;1.20;;;;;;;16.33;43.24;100305.86;1676041;84;20971;-87
2022/05/19 08:34:24;;;;;;;6.30;1.60;;;;;;;16.40;43.40;100298.69;1675256;84;21098;-83
2022/05/19 08:36:51;;;;;;;3.15;1.40;;;;;;;16.46;44.36;100300.67;1675411;85;21075;-83
2022/05/19 08:39:22;;;;;;;6.83;1.35;;;;;;;16.60;44.08;100297.63;1675043;84;21086;-84
2022/05/19 08:41:54;;;;;;;4.83;1.32;;;;;;;16.65;43.33;100304.03;1675008;86;20952;-84
2022/05/19 08:44:26;;;;;;;5.47;1.32;;;;;;;16.72;42.83;100302.95;1674219;86;21049;-84
2022/05/19 08:46:55;;;;;;;2.77;1.40;;;;;;;16.92;43.89;100309.38;1674087;86;21007;-83
2022/05/19 08:49:51;;;;;;;5.47;1.40;;;;;;;17.02;43.59;100301.14;1630874;87;21089;-84
2022/05/19 08:52:25;;;;;;;6.60;1.50;;;;;;;17.20;43.80;100307.56;1652960;85;21015;-84
2022/05/19 08:54:57;;;;;;;4.90;1.50;;;;;;;17.29;43.09;100307.27;1649529;85;21043;-82
2022/05/19 08:57:29;;;;;;;3.77;1.32;;;;;;;17.34;44.22;100279.50;1678242;85;21022;-85
2022/05/19 09:00:22;;;;;;;9.40;2.75;;;;;;;17.56;43.96;100291.45;1676238;86;21050;-85
2022/05/19 09:03:16;;;;;;;4.37;1.95;;;;;;;17.69;43.78;100286.17;1676382;85;21025;-83
2022/05/19 09:06:18;;;;;;;;;;;;;;;17.84;43.44;100285.25;1658235;85;21082;-85
2022/05/19 09:08:56;;;;;;;3.92;1.80;;;;;;;18.00;42.79;100274.55;1670021;84;20135;-84
2022/05/19 09:11:28;;;;;;;5.65;1.77;;;;;;;18.18;42.31;100274.80;1675319;85;21054;-84
2022/05/19 09:14:05;;;;;;;6.42;1.85;;;;;;;18.25;41.72;100271.03;1681342;85;21039;-84
2022/05/19 09:16:38;;;;;;;5.67;1.40;;;;;;;18.26;41.83;100260.87;1671355;86;21052;-84
2022/05/19 09:19:40;;;;;;;2.67;1.30;;;;;;;18.39;40.82;100270.03;1675356;85;21591;-84
2022/05/19 09:22:14;;;;;;;3.45;1.50;;;;;;;18.52;41.23;100264.28;1662599;84;20941;-87
2022/05/19 09:24:48;;;;;;;2.87;1.25;;;;;;;18.64;40.41;100262.04;1653515;86;21319;-88
2022/05/19 09:27:18;;;;;;;3.65;1.60;;;;;;;18.79;39.32;100253.12;1676903;82;21024;-87
2022/05/19 09:29:52;;;;;;;2.70;1.15;;;;;;;18.83;39.01;100248.15;1677333;84;21021;-85
2022/05/19 09:32:34;;;;;;;2.55;1.25;;;;;;;18.91;38.24;100247.84;1675859;80;21080;-85
2022/05/19 09:38:17;;;;;;;3.08;1.60;;;;;;;19.00;39.05;100239.09;1725546;80;21071;-86
2022/05/19 09:40:47;;;;;;;4.85;1.85;;;;;;;19.11;36.67;100236.00;1695176;80;21031;-86
2022/05/19 09:43:21;;;;;;;5.42;1.25;;;;;;;19.24;38.14;100235.03;1715556;84;21007;-85
2022/05/19 09:45:54;;;;;;;4.75;1.32;;;;;;;19.30;37.97;100235.20;1714914;84;21638;-86
2022/05/19 09:48:27;;;;;;;3.80;1.40;;;;;;;19.43;37.75;100241.67;1719086;82;21018;-86
2022/05/19 09:51:02;;;;;;;4.10;1.05;;;;;;;19.60;37.38;100232.56;1724302;82;21003;-86
2022/05/19 09:53:37;;;;;;;3.12;1.30;;;;;;;19.59;33.77;100236.11;1716721;84;21063;-86
2022/05/19 09:56:11;;;;;;;6.28;1.52;;;;;;;19.59;35.41;100236.58;1716794;84;21014;-85
2022/05/19 09:58:44;;;;;;;3.65;1.35;;;;;;;19.61;33.50;100227.66;1692306;84;21046;-86
2022/05/19 10:01:37;;;;;;;3.37;1.50;;;;;;;19.58;34.45;100222.55;1706597;84;21034;-86
2022/05/19 10:04:15;;;;;;;2.83;1.40;;;;;;;19.56;34.35;100224.39;1715683;84;21077;-86
2022/05/19 10:06:57;;;;;;;4.62;1.40;;;;;;;19.59;35.29;100216.33;1691565;84;21009;-86
2022/05/19 10:09:31;;;;;;;3.30;1.50;;;;;;;19.71;33.28;100214.08;1698791;83;21027;-86
2022/05/19 10:12:09;;;;;;;4.37;1.12;;;;;;;19.78;35.24;100207.64;1704022;81;21074;-86
2022/05/19 10:14:36;;;;;;;5.08;1.40;;;;;;;19.87;35.56;100207.20;1717092;84;21074;-87
2022/05/19 10:17:50;;;;;;;4.85;1.42;;;;;;;20.08;35.53;100208.48;1716577;84;21066;-85
2022/05/19 10:20:29;;;;;;;2.80;1.20;;;;;;;20.26;35.03;100202.33;1708153;84;21061;-84
2022/05/19 10:23:31;;;;;;;10.95;1.27;;;;;;;20.36;33.57;100213.30;1709045;83;21062;-86
2022/05/19 10:26:09;;;;;;;4.12;1.45;;;;;;;20.46;33.91;100204.85;1707838;84;21082;-85
2022/05/19 10:32:19;;;;;;;4.37;1.47;;;;;;;20.90;33.96;100193.05;1766146;80;21147;-86
2022/05/19 10:35:04;;;;;;;;;;;;;;;21.10;33.64;100189.39;1744456;81;21051;-87
2022/05/19 10:37:52;;;;;;;3.98;1.20;;;;;;;21.37;33.60;100187.12;1736115;81;20133;-87
2022/05/19 10:40:38;;;;;;;2.58;1.10;;;;;;;21.53;32.62;100184.55;1734551;83;21149;-88
2022/05/19 10:43:28;;;;;;;2.95;1.42;;;;;;;21.71;33.24;100183.19;1735188;82;21056;-87
2022/05/19 10:45:59;;;;;;;1.85;1.10;;;;;;;21.86;32.34;100186.30;1721320;83;21361;-86
2022/05/19 10:49:04;;;;;;;4.10;1.30;;;;;;;21.98;32.03;100191.39;1737697;81;21103;-85
2022/05/19 10:52:10;;;;;;;5.37;1.15;;;;;;;22.01;32.04;100188.11;1717038;83;21028;-81
2022/05/19 10:54:58;;;;;;;4.65;1.30;;;;;;;22.07;31.58;100179.46;1737011;81;21002;-80
2022/05/19 10:57:42;;;;;;;3.33;1.30;;;;;;;22.03;28.86;100188.03;1756241;81;21160;-80
2022/05/19 11:00:17;;;;;;;2.65;0.98;;;;;;;22.02;30.75;100180.57;1727043;83;21059;-85
2022/05/19 11:03:20;;;;;;;3.87;1.37;;;;;;;21.98;28.29;100184.30;1727358;82;20990;-82
2022/05/19 11:06:19;;;;;;;2.58;1.27;;;;;;;21.95;28.17;100180.99;1591966;90;21137;-85
2022/05/19 11:09:13;;;;;;;3.92;1.30;;;;;;;22.00;30.01;100172.30;1703846;83;21005;-85
2022/05/19 11:12:01;;;;;;;4.00;1.20;;;;;;;22.04;28.10;100171.20;1726239;81;21052;-84
2022/05/19 11:14:41;;;;;;;2.98;1.27;;;;;;;22.06;30.07;100162.69;1752423;81;20919;-83
2022/05/19 11:17:53;;;;;;;4.92;1.32;;;;;;;22.22;29.35;100157.39;1747144;81;21075;-82
2022/05/19 11:20:25;;;;;;;3.42;1.20;;;;;;;22.41;30.00;100151.47;1703475;81;21459;-81
2022/05/19 11:22:57;;;;;;;5.85;1.27;;;;;;;22.62;28.86;100145.86;1735234;81;21042;-83
2022/05/19 11:28:39;;;;;;;5.40;1.50;;;;;;;22.33;27.53;100149.73;1733093;81;21131;-84
2022/05/19 11:31:13;;;;;;;2.33;1.30;;;;;;;22.29;27.52;100150.00;1735238;81;21448;-83
2022/05/19 11:33:44;;;;;;;9.15;1.80;;;;;;;22.36;28.05;100142.07;1737220;81;21063;-84
2022/05/19 11:36:40;;;;;;;4.12;1.10;;;;;;;22.51;28.62;100136.38;1696045;84;21006;-85
2022/05/19 11:39:14;;;;;;;5.45;1.12;;;;;;;22.68;26.78;100139.34;1696816;82;21126;-86
2022/05/19 11:41:43;;;;;;;2.37;1.20;;;;;;;22.85;27.87;100147.16;1729486;81;21082;-85
2022/05/19 11:44:27;;;;;;;2.10;1.37;;;;;;;22.90;27.06;100137.16;1718307;83;21025;-86
2022/05/19 11:47:12;;;;;;;2.92;1.20;;;;;;;22.92;27.13;100131.73;1695807;83;21024;-86
2022/05/19 11:55:47;;;;;;;2.47;1.35;;;;;;;23.51;26.91;100131.23;1714647;83;20983;-82
2022/05/19 11:58:21;;;;;;;3.22;1.30;;;;;;;23.72;25.96;100124.22;1736174;81;21039;-86
2022/05/19 12:01:23;;;;;;;4.80;1.32;;;;;;;23.80;27.10;100123.29;1729355;81;21154;-84
2022/05/19 12:04:13;;;;;;;3.70;1.22;;;;;;;23.91;24.58;100125.24;1725464;81;21067;-84
2022/05/19 12:06:57;;;;;;;4.20;2.35;;;;;;;23.82;26.17;100118.73;1719255;81;21048;-85
2022/05/19 12:09:34;;;;;;;3.33;1.90;;;;;;;24.09;26.73;100113.91;1734968;81;21123;-86
2022/05/19 12:12:20;;;;;;;3.25;1.15;;;;;;;24.62;26.79;100112.19;1723645;83;21028;-84
2022/05/19 12:14:50;;;;;;;3.80;1.65;;;;;;;25.30;26.13;100105.75;1741156;81;20964;-85
2022/05/19 12:17:32;;;;;;;6.45;1.37;;;;;;;26.08;25.20;100099.28;1715438;82;21081;-85
2022/05/19 12:20:03;;;;;;;4.00;1.30;;;;;;;26.83;25.32;100107.47;1736468;81;21026;-84
2022/05/19 12:22:43;;;;;;;5.03;1.20;;;;;;;27.45;23.91;100108.88;1737990;81;21062;-85